Time;durP1;ratioP1;P1;durP2;ratioP2;P2;SDS_P1;SDS_P2;PMS_P1;PMS_P2;Temp;Humidity;BMP_temperature;BMP_pressure;BME280_temperature;BME280_humidity;BME280_pressure;Samples;Min_cycle;Max_cycle;Signal;HPM_P1;HPM_P2
2023/10/10 00:01:07;;;;;;;10.70;5.10;;;;;;;2.88;70.15;99566.48;107620;1253;60454;-38
2023/10/10 00:03:39;;;;;;;8.30;5.00;;;;;;;2.89;70.46;99566.61;107615;1253;73878;-38
2023/10/10 00:06:08;;;;;;;14.50;5.50;;;;;;;2.88;70.36;99566.26;107546;1257;67693;-38
2023/10/10 00:08:40;;;;;;;9.60;4.90;;;;;;;2.84;70.52;99571.23;107520;1257;73012;-38
2023/10/10 00:11:26;;;;;;;11.50;5.10;;;;;;;2.81;70.70;99564.84;107536;1253;60318;-38
2023/10/10 00:14:04;;;;;;;10.70;5.50;;;;;;;2.76;70.84;99557.27;107528;1253;60575;-38
2023/10/10 00:16:36;;;;;;;8.90;4.70;;;;;;;2.78;70.60;99560.06;107537;1253;73121;-38
2023/10/10 00:21:52;;;;;;;7.90;4.70;;;;;;;2.80;70.99;99558.59;107628;1253;72804;-38
2023/10/10 00:24:37;;;;;;;11.20;5.20;;;;;;;2.78;71.33;99556.91;107534;1253;60441;-38
2023/10/10 00:27:14;;;;;;;10.50;5.60;;;;;;;2.75;71.20;99555.80;107569;1253;60404;-38
2023/10/10 00:29:45;;;;;;;10.90;4.90;;;;;;;2.69;71.43;99557.81;107322;1253;73845;-38
2023/10/10 00:32:22;;;;;;;10.90;5.00;;;;;;;2.64;71.28;99553.48;107538;1253;67608;-38
2023/10/10 00:34:50;;;;;;;9.70;5.10;;;;;;;2.68;71.23;99552.27;107515;1253;71406;-38
2023/10/10 00:37:29;;;;;;;9.30;5.40;;;;;;;2.73;71.12;99557.66;107450;1253;60402;-38
2023/10/10 00:40:00;;;;;;;9.20;4.70;;;;;;;2.71;71.11;99559.36;107530;1253;60412;-38
2023/10/10 00:42:40;;;;;;;11.00;5.60;;;;;;;2.69;71.06;99559.80;107627;1253;73863;-38
2023/10/10 00:45:10;;;;;;;10.60;5.10;;;;;;;2.67;71.08;99553.56;107568;1253;67718;-38
2023/10/10 00:47:42;;;;;;;11.00;5.10;;;;;;;2.67;71.02;99555.63;107570;1253;71961;-39
2023/10/10 00:50:34;;;;;;;11.50;5.80;;;;;;;2.64;70.91;99559.44;107677;1253;60319;-38
2023/10/10 00:53:04;;;;;;;13.10;5.00;;;;;;;2.60;70.90;99556.73;107426;1253;60573;-38
2023/10/10 00:55:36;;;;;;;9.80;5.30;;;;;;;2.62;70.50;99555.23;107527;1253;73830;-38
2023/10/10 00:58:03;;;;;;;9.20;5.20;;;;;;;2.68;70.54;99551.52;107510;1253;68367;-38
2023/10/10 01:00:32;;;;;;;9.20;5.00;;;;;;;2.63;70.49;99553.29;107396;1252;71410;-38
2023/10/10 01:05:58;;;;;;;10.10;4.80;;;;;;;2.60;70.91;99556.35;107400;1253;60527;-38
2023/10/10 01:08:30;;;;;;;9.10;5.10;;;;;;;2.61;70.65;99560.73;107552;1254;72544;-38
2023/10/10 01:11:03;;;;;;;14.10;5.40;;;;;;;2.59;70.67;99560.73;107554;1253;67587;-38
2023/10/10 01:13:31;;;;;;;10.00;5.20;;;;;;;2.54;70.64;99561.05;107587;1253;72729;-39
2023/10/10 01:16:04;;;;;;;10.30;5.10;;;;;;;2.53;70.39;99561.75;107530;1253;61048;-38
2023/10/10 01:18:51;;;;;;;11.20;5.30;;;;;;;2.53;70.05;99563.46;107594;1253;60304;-38
2023/10/10 01:21:32;;;;;;;13.60;6.00;;;;;;;2.48;70.23;99568.77;107502;1253;73846;-38
2023/10/10 01:24:22;;;;;;;12.20;5.40;;;;;;;2.44;70.54;99573.45;107597;1253;67573;-38
2023/10/10 01:26:51;;;;;;;10.00;5.20;;;;;;;2.48;70.47;99576.70;107725;1253;71535;-38
2023/10/10 01:29:25;;;;;;;12.40;5.30;;;;;;;2.51;70.45;99576.14;107689;1251;60405;-38
2023/10/10 01:31:53;;;;;;;13.60;6.30;;;;;;;2.51;70.51;99574.96;107722;1251;60447;-38
2023/10/10 01:34:43;;;;;;;10.40;5.20;;;;;;;2.46;70.39;99566.31;107543;1256;73830;-38
2023/10/10 01:37:20;;;;;;;13.40;6.10;;;;;;;2.48;70.53;99569.78;107582;1253;66402;-38
2023/10/10 01:40:17;;;;;;;9.10;5.20;;;;;;;2.50;70.32;99571.84;107410;1253;72695;-38
2023/10/10 01:42:53;;;;;;;9.80;5.20;;;;;;;2.42;70.53;99575.27;107574;1253;60404;-38
2023/10/10 01:45:26;;;;;;;10.20;5.30;;;;;;;2.37;70.76;99579.23;107477;1253;60326;-39
2023/10/10 01:47:57;;;;;;;12.80;5.80;;;;;;;2.34;70.79;99575.39;107445;1253;72672;-38
2023/10/10 01:50:30;;;;;;;9.20;5.70;;;;;;;2.29;70.87;99572.16;107463;1252;68025;-38
2023/10/10 01:52:58;;;;;;;9.90;5.30;;;;;;;2.25;70.82;99573.66;107402;1253;72014;-38
2023/10/10 01:55:26;;;;;;;10.80;6.10;;;;;;;2.19;70.99;99577.95;107466;1256;60445;-38
2023/10/10 01:57:57;;;;;;;9.90;5.10;;;;;;;2.20;71.12;99582.84;107419;1253;60332;-38
2023/10/10 02:02:55;;;;;;;10.00;5.40;;;;;;;2.20;70.91;99578.94;107394;1253;66322;-38
2023/10/10 02:05:45;;;;;;;11.70;5.70;;;;;;;2.16;71.18;99577.63;107377;1255;72656;-38
2023/10/10 02:08:17;;;;;;;9.20;5.30;;;;;;;2.09;70.92;99582.00;107439;1258;60481;-38
2023/10/10 02:10:49;;;;;;;13.00;5.70;;;;;;;2.03;70.93;99580.14;107302;1253;60814;-38
2023/10/10 02:13:18;;;;;;;9.60;5.30;;;;;;;1.87;71.03;99568.16;107362;1253;73846;-38
2023/10/10 02:15:45;;;;;;;8.90;5.30;;;;;;;1.92;71.09;99576.89;107509;1253;66302;-38
2023/10/10 02:18:13;;;;;;;10.20;5.40;;;;;;;1.96;70.97;99576.38;107532;1253;72708;-38
2023/10/10 02:23:32;;;;;;;11.60;6.30;;;;;;;1.97;71.12;99570.69;107590;1253;60456;-36
2023/10/10 02:26:35;;;;;;;10.40;5.30;;;;;;;1.94;71.08;99568.64;107549;1253;73864;-36
2023/10/10 02:31:46;;;;;;;11.90;6.00;;;;;;;1.88;70.94;99569.90;107407;1253;72724;-37
2023/10/10 02:34:14;;;;;;;8.60;5.20;;;;;;;1.84;70.84;99566.70;107374;1253;60877;-36
2023/10/10 02:36:42;;;;;;;9.10;5.10;;;;;;;1.87;70.97;99562.80;107396;1253;60462;-37
2023/10/10 02:41:49;;;;;;;9.20;5.10;;;;;;;1.91;70.57;99566.20;107578;1258;66319;-37
2023/10/10 02:47:03;;;;;;;9.70;5.30;;;;;;;1.83;71.05;99564.48;107500;1253;60439;-37
2023/10/10 02:49:30;;;;;;;8.90;5.10;;;;;;;1.80;71.09;99568.29;107396;1253;60384;-37
2023/10/10 02:52:05;;;;;;;9.40;5.20;;;;;;;1.76;71.03;99566.85;107601;1253;73836;-37
2023/10/10 02:54:34;;;;;;;8.50;5.30;;;;;;;1.71;71.23;99566.31;107284;1253;67586;-37
2023/10/10 02:59:51;;;;;;;8.60;5.30;;;;;;;1.77;71.17;99571.17;107372;1258;60713;-37
2023/10/10 03:02:19;;;;;;;9.40;5.50;;;;;;;1.75;71.23;99567.62;107469;1258;60429;-37
2023/10/10 03:07:30;;;;;;;10.50;5.40;;;;;;;1.68;71.21;99558.56;107553;1257;66809;-37
2023/10/10 03:12:42;;;;;;;9.70;5.70;;;;;;;1.64;71.59;99556.88;107313;1253;60358;-37
2023/10/10 03:15:14;;;;;;;12.10;6.20;;;;;;;1.64;71.54;99556.46;107384;1253;60980;-37
2023/10/10 03:18:30;;;;;;;13.70;6.00;;;;;;;1.67;71.53;99559.48;107427;1253;73902;-37
2023/10/10 03:26:04;;;;;;;11.00;6.00;;;;;;;1.70;71.42;99555.30;107377;1255;60444;-38
2023/10/10 03:28:41;;;;;;;11.80;5.40;;;;;;;1.70;71.56;99559.70;107437;1253;60312;-38
2023/10/10 03:31:22;;;;;;;8.60;5.20;;;;;;;1.71;71.50;99557.38;107401;1253;72612;-38
2023/10/10 03:37:04;;;;;;;9.30;5.30;;;;;;;1.65;71.43;99569.74;107374;1254;72686;-38
2023/10/10 03:39:43;;;;;;;9.70;5.40;;;;;;;1.68;71.13;99568.02;107384;1254;60900;-38
2023/10/10 05:25:23;;;;;;;12.30;6.40;;;;;;;1.60;73.14;99656.40;107087;1257;71454;-37
2023/10/10 05:27:52;;;;;;;10.40;6.60;;;;;;;1.62;73.05;99658.98;107208;1256;59596;-37
2023/10/10 05:30:39;;;;;;;14.30;6.50;;;;;;;1.67;73.19;99661.52;107243;1257;59302;-37
2023/10/10 05:33:07;;;;;;;12.80;6.60;;;;;;;1.77;73.13;99661.08;107237;1256;73108;-37
2023/10/10 05:35:48;;;;;;;24.40;7.70;;;;;;;1.91;73.11;99661.92;107249;1256;67621;-37
2023/10/10 05:38:16;;;;;;;12.10;6.50;;;;;;;1.98;73.32;99661.30;107259;1256;72767;-37
2023/10/10 05:40:47;;;;;;;12.90;7.20;;;;;;;2.04;73.37;99664.33;107238;1256;59607;-37
2023/10/10 05:43:25;;;;;;;11.80;6.80;;;;;;;2.09;73.26;99663.03;107300;1256;60030;-38
2023/10/10 05:45:54;;;;;;;10.60;6.40;;;;;;;2.13;73.09;99664.13;107278;1256;71844;-38
2023/10/10 05:48:22;;;;;;;12.40;6.30;;;;;;;2.16;73.11;99667.06;107244;1256;67982;-38
2023/10/10 05:50:49;;;;;;;11.90;6.20;;;;;;;2.25;73.35;99670.48;107038;1256;71171;-38
2023/10/10 05:53:18;;;;;;;11.50;6.00;;;;;;;2.38;72.89;99673.45;107221;1257;59328;-38
2023/10/10 05:55:51;;;;;;;11.50;5.90;;;;;;;2.44;73.14;99681.98;107251;1262;60006;-38
2023/10/10 05:58:20;;;;;;;8.90;5.30;;;;;;;2.47;73.23;99681.48;107269;1256;73065;-38
2023/10/10 06:00:48;;;;;;;10.20;5.40;;;;;;;2.54;73.02;99682.16;107262;1256;66600;-38
2023/10/10 06:03:17;;;;;;;10.40;5.80;;;;;;;2.58;73.38;99684.31;107258;1257;72667;-38
2023/10/10 06:05:45;;;;;;;9.70;5.70;;;;;;;2.63;73.11;99689.31;107113;1259;60931;-38
2023/10/10 06:08:13;;;;;;;12.40;5.90;;;;;;;2.77;72.81;99691.86;107269;1256;60212;-38
2023/10/10 06:10:41;;;;;;;11.10;5.50;;;;;;;2.91;71.91;99693.33;107274;1256;73508;-35
2023/10/10 06:13:11;;;;;;;7.70;5.30;;;;;;;2.97;71.54;99691.91;107269;1257;67607;-36
2023/10/10 06:15:39;;;;;;;9.70;5.50;;;;;;;3.01;71.54;99696.39;107266;1256;72658;-37
2023/10/10 06:18:18;;;;;;;11.40;5.90;;;;;;;3.05;71.07;99697.96;107257;1256;59597;-37
2023/10/10 06:20:47;;;;;;;9.30;5.50;;;;;;;3.10;71.08;99699.30;107236;1256;60050;-37
2023/10/10 06:23:20;;;;;;;10.10;5.20;;;;;;;3.15;71.25;99705.45;107273;1256;73142;-36
2023/10/10 06:25:48;;;;;;;8.80;5.30;;;;;;;3.21;71.04;99708.86;107249;1257;67577;-37
2023/10/10 06:28:22;;;;;;;8.90;5.20;;;;;;;3.34;70.95;99710.39;107056;1256;72707;-37
2023/10/10 06:30:52;;;;;;;11.40;5.90;;;;;;;3.45;70.58;99720.09;107186;1257;59537;-37
2023/10/10 06:33:27;;;;;;;9.00;5.70;;;;;;;3.48;70.52;99728.45;107234;1256;60003;-37
2023/10/10 06:41:38;;;;;;;11.60;5.80;;;;;;;3.49;70.57;99725.55;107268;1257;73438;-37
2023/10/10 06:46:55;;;;;;;10.90;5.30;;;;;;;3.64;70.61;99720.94;107063;1257;60057;-36
2023/10/10 06:49:23;;;;;;;9.20;5.70;;;;;;;3.77;70.29;99718.43;107226;1256;73164;-37
2023/10/10 06:51:55;;;;;;;10.70;5.90;;;;;;;3.81;70.22;99713.77;107247;1261;67291;-36
2023/10/10 06:54:29;;;;;;;13.10;6.00;;;;;;;3.84;70.11;99713.59;107103;1257;72674;-36
2023/10/10 06:59:28;;;;;;;9.80;6.10;;;;;;;3.87;70.41;99708.69;107124;1257;59395;-37
2023/10/10 07:04:42;;;;;;;11.20;5.90;;;;;;;4.11;70.90;99708.13;107093;1256;67904;-36
2023/10/10 07:07:13;;;;;;;9.20;5.20;;;;;;;4.30;70.73;99703.33;107048;1261;72686;-37
2023/10/10 07:09:42;;;;;;;7.70;4.90;;;;;;;4.44;70.82;99702.85;107202;1256;59674;-37
2023/10/10 07:12:10;;;;;;;9.60;5.20;;;;;;;4.55;70.62;99696.16;107249;1257;60032;-37
2023/10/10 07:14:43;;;;;;;9.30;5.00;;;;;;;4.65;70.48;99688.45;107202;1256;73067;-37
2023/10/10 07:17:15;;;;;;;8.80;5.40;;;;;;;4.75;70.08;99687.40;107274;1256;66591;-37
2023/10/10 07:22:34;;;;;;;8.60;4.70;;;;;;;4.98;69.18;99694.02;107219;1262;59753;-37
2023/10/10 07:25:07;;;;;;;6.70;4.60;;;;;;;5.13;68.88;99698.02;107101;1256;59210;-37
2023/10/10 07:27:39;;;;;;;11.60;5.30;;;;;;;5.30;68.44;99706.25;107232;1256;72218;-37
2023/10/10 07:30:17;;;;;;;7.70;4.80;;;;;;;5.39;67.63;99709.50;107237;1256;67560;-37
2023/10/10 07:32:48;;;;;;;9.60;5.60;;;;;;;5.45;67.27;99712.40;107236;1256;71272;-37
2023/10/10 07:35:25;;;;;;;11.30;5.60;;;;;;;5.53;67.21;99716.08;107267;1262;59667;-36
2023/10/10 07:37:58;;;;;;;10.50;4.90;;;;;;;5.60;66.93;99717.89;107232;1256;61497;-36
2023/10/10 07:40:37;;;;;;;7.70;4.70;;;;;;;5.68;66.80;99719.86;107268;1256;72041;-37
2023/10/10 07:43:07;;;;;;;7.50;4.40;;;;;;;5.77;66.66;99720.98;107297;1256;69721;-37
2023/10/10 07:45:43;;;;;;;9.90;5.10;;;;;;;5.86;66.41;99723.71;107053;1262;72770;-37
2023/10/10 07:50:48;;;;;;;9.00;4.70;;;;;;;6.19;64.99;99726.29;107225;1256;60024;-37
2023/10/10 07:53:17;;;;;;;8.30;4.40;;;;;;;6.26;64.83;99724.46;107245;1257;73059;-37
2023/10/10 07:58:27;;;;;;;11.40;4.20;;;;;;;6.43;64.57;99715.08;107201;1256;72783;-37
2023/10/10 12:32:34;;;;;;;2.50;1.80;;;;;;;13.70;34.58;99767.95;105126;1285;613807;-36
2023/10/10 12:35:02;;;;;;;2.50;1.30;;;;;;;13.57;35.31;99780.52;106290;1272;472912;-36
2023/10/10 12:37:36;;;;;;;2.00;1.40;;;;;;;13.35;35.51;99784.67;106613;1270;61108;-36
2023/10/10 12:40:09;;;;;;;3.40;1.10;;;;;;;13.06;35.93;99794.23;106623;1264;72265;-36
2023/10/10 12:42:37;;;;;;;2.80;1.90;;;;;;;12.84;36.51;99792.77;106656;1264;66294;-36
2023/10/10 12:45:06;;;;;;;1.80;1.10;;;;;;;12.67;36.76;99794.52;106687;1266;72685;-36
2023/10/10 12:47:34;;;;;;;2.20;1.20;;;;;;;12.51;37.15;99796.95;106695;1270;62292;-36
2023/10/10 12:50:13;;;;;;;5.20;1.40;;;;;;;12.36;37.32;99793.56;106816;1264;60038;-36
2023/10/10 12:52:46;;;;;;;8.60;5.10;;;;;;;12.24;37.65;99799.46;106658;1266;73238;-36
2023/10/10 12:55:16;;;;;;;4.00;2.10;;;;;;;12.13;37.39;99794.07;106750;1264;69150;-36
2023/10/10 12:57:44;;;;;;;4.30;2.80;;;;;;;12.06;37.58;99793.91;106738;1270;71415;-36
2023/10/10 13:00:23;;;;;;;6.20;3.60;;;;;;;12.03;37.90;99803.19;106628;1265;61202;-36
2023/10/10 13:02:53;;;;;;;4.10;2.30;;;;;;;12.10;38.03;99803.02;106655;1270;59495;-37
2023/10/10 13:05:27;;;;;;;6.70;4.10;;;;;;;12.36;38.00;99806.22;106740;1264;75324;-36
2023/10/10 13:07:58;;;;;;;6.20;3.20;;;;;;;12.60;37.27;99803.17;106780;1266;67806;-36
2023/10/10 13:10:28;;;;;;;10.40;6.20;;;;;;;12.66;37.07;99803.12;106742;1266;76247;-37
2023/10/10 13:12:56;;;;;;;5.10;3.20;;;;;;;12.65;36.94;99808.77;106729;1266;62571;-37
2023/10/10 13:15:30;;;;;;;5.50;3.60;;;;;;;12.74;37.00;99811.97;106781;1264;59488;-37
2023/10/10 13:20:44;;;;;;;3.90;1.90;;;;;;;13.57;36.43;99813.45;106759;1266;67922;-37
2023/10/10 13:23:13;;;;;;;2.90;1.90;;;;;;;13.85;35.61;99807.84;106922;1264;74904;-37
2023/10/10 13:25:44;;;;;;;2.90;1.60;;;;;;;13.96;35.41;99813.66;106877;1261;61334;-37
2023/10/10 13:28:17;;;;;;;2.10;1.40;;;;;;;13.95;34.72;99808.74;106893;1263;59638;-37
2023/10/10 13:30:47;;;;;;;1.20;1.00;;;;;;;13.89;34.88;99804.62;106931;1261;74959;-36
2023/10/10 13:33:16;;;;;;;2.10;1.20;;;;;;;14.01;35.20;99807.02;106865;1261;67014;-37
2023/10/10 13:35:44;;;;;;;1.30;0.90;;;;;;;14.35;34.82;99808.27;106903;1261;72735;-37
2023/10/10 13:38:12;;;;;;;1.20;1.00;;;;;;;14.70;33.81;99806.46;106903;1267;62196;-37
2023/10/10 13:40:48;;;;;;;2.00;1.20;;;;;;;14.82;33.58;99806.50;106899;1261;62132;-37
2023/10/10 13:43:17;;;;;;;3.10;1.20;;;;;;;14.97;33.86;99808.65;106801;1261;72458;-37
2023/10/10 13:45:51;;;;;;;2.40;1.70;;;;;;;15.33;33.43;99806.81;106844;1261;67573;-37
2023/10/10 13:48:18;;;;;;;2.00;1.20;;;;;;;15.71;32.54;99806.77;106775;1263;74825;-37
2023/10/10 13:50:50;;;;;;;1.30;1.10;;;;;;;15.73;32.57;99808.58;106871;1260;59599;-37
2023/10/10 13:53:20;;;;;;;1.70;1.10;;;;;;;15.69;32.39;99815.02;106898;1263;60136;-37
2023/10/10 13:55:48;;;;;;;2.70;1.30;;;;;;;15.51;33.07;99818.66;106882;1264;74163;-37
2023/10/10 13:58:16;;;;;;;1.90;1.30;;;;;;;15.23;33.10;99820.17;106906;1262;66809;-37
2023/10/10 14:00:55;;;;;;;1.40;1.00;;;;;;;14.98;33.69;99821.54;106886;1263;74778;-37
2023/10/10 14:03:29;;;;;;;1.90;1.40;;;;;;;14.91;33.84;99819.52;106909;1265;59618;-37
2023/10/10 14:06:00;;;;;;;1.30;1.00;;;;;;;15.00;33.54;99818.43;106892;1263;59779;-37
2023/10/10 14:08:30;;;;;;;3.70;1.20;;;;;;;15.14;33.91;99825.95;106781;1263;73144;-37
2023/10/10 14:10:59;;;;;;;2.20;1.30;;;;;;;15.20;33.44;99826.86;106880;1263;68079;-37
2023/10/10 14:13:28;;;;;;;2.70;1.30;;;;;;;15.12;33.34;99830.71;106950;1262;71521;-37
2023/10/10 14:15:56;;;;;;;2.30;1.30;;;;;;;15.00;33.45;99832.23;106920;1260;60427;-37
2023/10/10 14:18:24;;;;;;;5.20;3.90;;;;;;;15.12;33.62;99837.33;106905;1261;60038;-37
2023/10/10 14:20:53;;;;;;;5.70;1.50;;;;;;;15.45;33.14;99837.59;106957;1261;71546;-37
2023/10/10 14:23:24;;;;;;;2.20;1.40;;;;;;;15.87;32.50;99843.40;106987;1263;66319;-36
2023/10/10 14:26:03;;;;;;;2.10;1.40;;;;;;;16.07;32.18;99847.48;106939;1263;72740;-37
2023/10/10 14:28:32;;;;;;;2.80;1.30;;;;;;;16.18;32.58;99851.98;106901;1260;60179;-37
2023/10/10 14:31:00;;;;;;;2.50;1.40;;;;;;;16.14;32.27;99852.59;106974;1260;62147;-37
2023/10/10 14:33:27;;;;;;;1.30;1.00;;;;;;;15.84;32.56;99856.35;106870;1263;73012;-36
2023/10/10 14:35:55;;;;;;;4.30;1.40;;;;;;;15.55;33.00;99860.69;106908;1261;66450;-36
2023/10/10 14:38:23;;;;;;;2.00;1.30;;;;;;;15.32;33.62;99861.61;106921;1263;72712;-37
2023/10/10 14:40:51;;;;;;;3.10;1.80;;;;;;;15.14;33.93;99867.94;106881;1263;59772;-36
2023/10/10 14:43:19;;;;;;;2.60;1.60;;;;;;;14.91;34.16;99868.27;106883;1260;59938;-37
2023/10/10 14:45:48;;;;;;;2.90;1.80;;;;;;;14.63;34.74;99871.64;106865;1261;72315;-36
2023/10/10 14:48:18;;;;;;;3.40;1.70;;;;;;;14.31;35.08;99870.58;106911;1261;66665;-36
2023/10/10 14:50:53;;;;;;;2.80;1.80;;;;;;;13.91;35.52;99876.28;106888;1263;72691;-36
2023/10/10 14:53:24;;;;;;;2.50;1.60;;;;;;;13.52;36.47;99884.89;106876;1262;60081;-37
2023/10/10 14:55:52;;;;;;;3.10;2.00;;;;;;;13.19;37.17;99886.16;106887;1263;59331;-37
2023/10/10 14:58:23;;;;;;;3.90;1.80;;;;;;;12.90;37.72;99889.37;106903;1261;73060;-37
2023/10/10 15:00:52;;;;;;;6.10;2.10;;;;;;;12.60;38.15;99894.79;106891;1263;67888;-37
2023/10/10 15:03:21;;;;;;;3.50;2.10;;;;;;;12.29;38.73;99896.14;106897;1263;74846;-37
2023/10/10 15:05:52;;;;;;;2.80;1.90;;;;;;;12.05;39.36;99900.67;106941;1260;59598;-37
2023/10/10 15:08:21;;;;;;;6.50;3.40;;;;;;;11.82;39.68;99906.68;106879;1262;60018;-37
2023/10/10 15:10:53;;;;;;;6.30;3.30;;;;;;;11.60;40.15;99907.08;106957;1263;71798;-38
2023/10/10 15:13:21;;;;;;;4.70;2.40;;;;;;;11.39;40.65;99908.36;106841;1263;67887;-37
2023/10/10 15:15:48;;;;;;;6.20;2.20;;;;;;;11.18;40.89;99917.69;106943;1263;72712;-37
2023/10/10 15:18:16;;;;;;;5.20;2.10;;;;;;;10.97;41.41;99918.30;106868;1263;61754;-38
2023/10/10 15:20:46;;;;;;;6.10;2.60;;;;;;;10.79;41.88;99921.55;106905;1263;59479;-38
2023/10/10 15:23:20;;;;;;;4.20;2.40;;;;;;;10.67;42.25;99922.77;106888;1263;73092;-37
2023/10/10 15:25:53;;;;;;;4.70;1.90;;;;;;;10.54;42.49;99925.61;106916;1263;66345;-37
2023/10/10 15:28:21;;;;;;;6.10;2.40;;;;;;;10.41;42.83;99929.65;106927;1263;74829;-38
2023/10/10 15:30:49;;;;;;;3.30;2.10;;;;;;;10.29;43.21;99929.69;106921;1263;59517;-37
2023/10/10 15:33:22;;;;;;;4.70;2.60;;;;;;;10.18;43.64;99931.59;106899;1263;62165;-37
2023/10/10 15:35:52;;;;;;;4.70;2.50;;;;;;;10.08;44.09;99935.60;106882;1261;71819;-38
2023/10/10 15:38:22;;;;;;;;;;;;;;;9.98;44.57;99941.54;106859;1263;70639;-38
2023/10/10 15:40:52;;;;;;;2.90;2.10;;;;;;;9.91;44.96;99945.31;106892;1260;72752;-37
2023/10/10 15:43:20;;;;;;;3.50;1.90;;;;;;;9.83;45.28;99952.81;106831;1267;59725;-37
2023/10/10 15:45:59;;;;;;;6.30;2.60;;;;;;;9.78;45.61;99956.52;106860;1263;60066;-37
2023/10/10 15:48:27;;;;;;;6.70;3.50;;;;;;;9.73;45.88;99957.36;106874;1267;73050;-38
2023/10/10 15:50:58;;;;;;;7.30;4.10;;;;;;;9.64;46.22;99962.02;106870;1263;67904;-37
2023/10/10 15:53:26;;;;;;;10.40;6.20;;;;;;;9.55;46.52;99961.73;106912;1263;72764;-37
2023/10/10 15:56:07;;;;;;;18.60;10.40;;;;;;;9.45;46.91;99968.85;106855;1263;60151;-37
2023/10/10 15:58:35;;;;;;;21.80;12.40;;;;;;;9.36;46.99;99973.48;106909;1261;59557;-37
2023/10/10 16:01:14;;;;;;;12.90;8.10;;;;;;;9.25;47.57;99976.52;106880;1263;75163;-37
2023/10/10 16:03:48;;;;;;;11.50;5.80;;;;;;;9.13;48.48;99980.06;106897;1261;66430;-37
2023/10/10 16:06:18;;;;;;;8.00;4.70;;;;;;;9.00;49.55;99982.86;106889;1263;72660;-37
2023/10/10 16:08:47;;;;;;;8.80;5.60;;;;;;;8.91;50.23;99986.55;106878;1263;59695;-37
2023/10/10 16:11:19;;;;;;;18.80;9.00;;;;;;;8.82;50.69;99994.05;106992;1263;62667;-37
2023/10/10 16:13:48;;;;;;;17.40;9.40;;;;;;;8.73;50.65;99995.77;106796;1260;73877;-37
2023/10/10 16:16:18;;;;;;;16.10;9.80;;;;;;;8.63;50.93;99997.83;106934;1263;66643;-37
2023/10/10 16:18:46;;;;;;;19.30;9.20;;;;;;;8.53;51.11;99998.90;106904;1261;72927;-37
2023/10/10 16:21:14;;;;;;;13.60;7.90;;;;;;;8.44;51.18;100005.05;106865;1263;59462;-37
2023/10/10 16:23:45;;;;;;;13.80;7.70;;;;;;;8.32;51.73;100010.71;106881;1261;60041;-37
2023/10/10 16:26:16;;;;;;;12.10;6.40;;;;;;;8.24;52.25;100013.80;106877;1261;75162;-37
2023/10/10 16:28:44;;;;;;;13.30;7.30;;;;;;;8.17;52.51;100014.27;106889;1263;68615;-37
2023/10/10 16:31:17;;;;;;;12.80;7.30;;;;;;;8.10;53.06;100020.65;106870;1268;73130;-37
2023/10/10 16:33:45;;;;;;;13.20;7.60;;;;;;;8.03;53.77;100022.37;106836;1266;60549;-37
2023/10/10 16:36:17;;;;;;;14.90;7.90;;;;;;;7.97;54.21;100029.06;106914;1266;61084;-37
2023/10/10 16:38:49;;;;;;;15.60;8.60;;;;;;;7.90;54.42;100034.79;106877;1261;75079;-37
2023/10/10 16:41:18;;;;;;;13.40;7.50;;;;;;;7.81;54.48;100036.55;106879;1260;68478;-37
2023/10/10 16:43:49;;;;;;;11.90;7.20;;;;;;;7.76;54.42;100044.81;106884;1267;74761;-37
2023/10/10 16:46:31;;;;;;;9.40;5.40;;;;;;;7.70;54.27;100043.48;106869;1260;61999;-37
2023/10/10 16:48:59;;;;;;;10.00;5.20;;;;;;;7.64;54.32;100046.86;106931;1263;60308;-37
2023/10/10 16:51:31;;;;;;;9.10;5.30;;;;;;;7.59;54.77;100057.42;106882;1263;76145;-37
2023/10/10 16:54:00;;;;;;;10.20;5.10;;;;;;;7.53;55.03;100059.66;106923;1263;69105;-37
2023/10/10 16:56:29;;;;;;;8.80;4.90;;;;;;;7.48;55.51;100061.89;106093;1263;1003746;-37
2023/10/10 16:58:56;;;;;;;10.20;5.20;;;;;;;7.41;56.07;100063.34;106887;1263;60457;-37
2023/10/10 17:01:24;;;;;;;11.10;4.30;;;;;;;7.36;56.89;100069.27;106886;1260;62534;-37
2023/10/10 17:03:55;;;;;;;7.30;4.40;;;;;;;7.30;57.60;100075.08;106937;1262;76477;-37
2023/10/10 17:06:23;;;;;;;8.60;4.20;;;;;;;7.21;57.76;100073.40;106901;1263;69675;-37
2023/10/10 17:08:54;;;;;;;7.90;4.50;;;;;;;7.14;57.92;100078.65;106878;1263;73746;-37
2023/10/10 17:11:22;;;;;;;8.00;4.60;;;;;;;7.07;57.72;100078.78;106886;1262;60670;-37
2023/10/10 17:13:52;;;;;;;7.30;4.40;;;;;;;6.99;57.83;100081.58;106916;1267;61439;-37
2023/10/10 17:16:28;;;;;;;8.20;4.40;;;;;;;6.89;57.78;100084.99;106875;1263;76371;-37
2023/10/10 17:18:57;;;;;;;8.10;5.00;;;;;;;6.80;57.99;100083.56;106959;1260;70704;-37
2023/10/10 17:21:47;;;;;;;9.30;4.60;;;;;;;6.72;58.24;100089.61;106856;1263;75300;-37
2023/10/10 17:24:18;;;;;;;8.50;4.70;;;;;;;6.67;58.32;100090.27;106877;1262;60422;-37
2023/10/10 17:26:46;;;;;;;6.70;4.30;;;;;;;6.60;58.55;100095.27;106889;1261;59581;-37
2023/10/10 17:29:14;;;;;;;8.10;4.70;;;;;;;6.53;58.57;100102.20;106900;1260;76417;-37
2023/10/10 17:31:42;;;;;;;7.00;4.70;;;;;;;6.47;58.73;100099.20;106881;1267;70634;-37
2023/10/10 17:34:15;;;;;;;7.70;4.60;;;;;;;6.39;58.87;100098.18;106900;1263;75262;-37
2023/10/10 17:36:43;;;;;;;6.80;4.50;;;;;;;6.32;58.99;100099.67;106864;1262;61813;-37
2023/10/10 17:39:15;;;;;;;8.10;5.00;;;;;;;6.26;59.26;100101.70;106907;1263;60319;-37
2023/10/10 17:41:47;;;;;;;8.60;4.70;;;;;;;6.20;59.27;100106.77;106856;1264;72616;-37
2023/10/10 17:44:17;;;;;;;6.50;4.40;;;;;;;6.13;59.38;100105.77;106917;1263;69786;-37
2023/10/10 17:46:47;;;;;;;6.30;4.40;;;;;;;6.06;59.60;100108.59;106954;1264;73749;-37
2023/10/10 17:49:15;;;;;;;6.80;4.30;;;;;;;6.02;59.68;100111.61;106931;1263;60422;-37
2023/10/10 17:51:44;;;;;;;9.00;4.50;;;;;;;5.97;59.82;100112.54;106903;1262;60400;-37
2023/10/10 17:54:15;;;;;;;5.00;3.00;;;;;;;5.92;59.84;100112.37;106890;1263;73878;-37
2023/10/10 17:56:44;;;;;;;7.50;4.70;;;;;;;5.86;59.78;100111.77;106906;1263;69890;-37
2023/10/10 17:59:13;;;;;;;7.30;4.60;;;;;;;5.76;60.14;100112.88;106944;1263;75260;-37
2023/10/10 18:01:43;;;;;;;7.20;4.80;;;;;;;5.67;60.64;100116.10;106880;1264;61466;-37
2023/10/10 18:04:13;;;;;;;7.10;4.50;;;;;;;5.61;61.01;100116.58;106977;1262;61089;-37
2023/10/10 18:06:41;;;;;;;8.30;4.80;;;;;;;5.57;61.09;100120.50;106871;1262;73913;-37
2023/10/10 18:09:09;;;;;;;8.10;4.60;;;;;;;5.54;61.16;100123.71;106921;1266;67900;-37
2023/10/10 18:11:37;;;;;;;9.20;4.80;;;;;;;5.48;61.15;100121.17;106874;1263;73821;-37
2023/10/10 18:14:06;;;;;;;7.40;5.20;;;;;;;5.41;60.98;100121.38;106860;1263;60524;-37
2023/10/10 18:16:35;;;;;;;;;;;;;;;5.35;60.88;100126.93;106177;1263;1002934;-37
2023/10/10 18:19:05;;;;;;;7.90;4.30;;;;;;;5.25;61.08;100127.85;107089;1258;75950;-37
2023/10/10 18:21:33;;;;;;;7.70;4.80;;;;;;;5.19;61.26;100129.89;107087;1262;68781;-37
2023/10/10 18:24:05;;;;;;;7.40;5.10;;;;;;;5.12;61.49;100135.14;107052;1259;74857;-37
2023/10/10 18:26:37;;;;;;;8.90;4.60;;;;;;;5.00;61.81;100138.65;107071;1257;60290;-37
2023/10/10 18:29:06;;;;;;;8.50;4.80;;;;;;;4.93;62.01;100138.98;107046;1262;60066;-37
2023/10/10 18:31:34;;;;;;;8.10;5.00;;;;;;;4.97;62.16;100137.11;107111;1258;74974;-37
2023/10/10 18:34:06;;;;;;;8.00;5.30;;;;;;;5.00;62.37;100138.80;107098;1258;67721;-37
2023/10/10 18:36:36;;;;;;;10.50;4.80;;;;;;;5.01;62.33;100141.79;107039;1259;74868;-37
2023/10/10 18:39:12;;;;;;;8.10;5.10;;;;;;;5.03;62.36;100145.10;107024;1259;60441;-37
2023/10/10 18:41:44;;;;;;;8.20;5.00;;;;;;;5.04;62.38;100145.69;107060;1259;63465;-37
2023/10/10 18:44:15;;;;;;;8.90;5.80;;;;;;;5.02;61.96;100145.91;107044;1263;76367;-37
2023/10/10 18:46:43;;;;;;;9.30;5.20;;;;;;;4.99;61.93;100147.65;107095;1260;68943;-37
2023/10/10 18:49:13;;;;;;;9.90;5.50;;;;;;;4.96;61.95;100151.00;107078;1259;71927;-37
2023/10/10 18:51:42;;;;;;;8.20;5.30;;;;;;;4.92;61.93;100152.43;107075;1259;61676;-37
2023/10/10 18:54:12;;;;;;;7.70;4.70;;;;;;;4.87;61.83;100153.19;107055;1260;60892;-37
2023/10/10 18:56:40;;;;;;;11.60;6.20;;;;;;;4.80;62.02;100151.33;107023;1259;76182;-37
2023/10/10 18:59:09;;;;;;;12.00;6.70;;;;;;;4.77;62.13;100152.48;107106;1259;68476;-37
2023/10/10 19:01:38;;;;;;;13.80;7.00;;;;;;;4.75;62.33;100156.97;107044;1265;71718;-36